createdAt,value
2023-07-15T00:02:13.046Z,88.40
2023-07-15T00:04:42.947Z,91.70
2023-07-15T00:07:12.684Z,93.00
2023-07-15T00:09:46.099Z,91.30
2023-07-15T00:12:17.555Z,92.80
2023-07-15T00:14:47.117Z,95.30
2023-07-15T00:17:17.122Z,95.90
2023-07-15T00:19:49.346Z,94.80
2023-07-15T00:22:18.703Z,91.40
2023-07-15T00:24:51.201Z,96.70
2023-07-15T00:27:20.517Z,94.40
2023-07-15T00:29:50.148Z,95.10
2023-07-15T00:32:42.058Z,100.30
2023-07-15T00:35:38.991Z,95.90
2023-07-15T00:38:15.302Z,92.30
2023-07-15T00:40:50.394Z,94.70
2023-07-15T00:44:19.291Z,96.40
2023-07-15T00:47:23.734Z,97.70
2023-07-15T00:49:53.549Z,92.50
2023-07-15T00:52:23.893Z,95.70
2023-07-15T01:07:50.500Z,96.30
2023-07-15T01:10:29.823Z,90.00
2023-07-15T01:13:08.254Z,94.50
2023-07-15T01:15:49.941Z,98.20
2023-07-15T01:18:20.168Z,99.40
2023-07-15T01:21:38.392Z,98.20
2023-07-15T01:24:09.951Z,97.10
2023-07-15T01:27:29.941Z,98.10
2023-07-15T01:30:16.766Z,88.70
2023-07-15T01:36:04.914Z,54.70
2023-07-15T01:38:51.513Z,52.00
2023-07-15T01:48:56.876Z,43.80
2023-07-15T01:52:09.137Z,48.60
2023-07-15T01:55:34.149Z,52.30
2023-07-15T02:01:23.613Z,52.70
2023-07-15T02:07:22.812Z,48.10
2023-07-15T02:28:23.643Z,42.10
2023-07-15T02:30:58.544Z,40.50
2023-07-15T02:33:31.252Z,39.90
2023-07-15T02:36:14.326Z,41.40
2023-07-15T02:38:49.426Z,42.50
2023-07-15T02:41:18.490Z,40.40
2023-07-15T02:43:47.774Z,40.40
2023-07-15T02:46:17.193Z,41.80
2023-07-15T02:48:46.712Z,42.40
2023-07-15T02:51:15.793Z,39.90
2023-07-15T02:53:49.328Z,41.10
2023-07-15T02:56:21.447Z,40.50
2023-07-15T02:58:50.975Z,39.80
2023-07-15T03:04:01.532Z,41.50
2023-07-15T03:06:33.949Z,41.50
2023-07-15T03:11:59.592Z,46.90
2023-07-15T03:14:29.281Z,46.70
2023-07-15T03:17:06.402Z,50.60
2023-07-15T03:19:37.687Z,56.80
2023-07-15T03:22:09.033Z,58.30
2023-07-15T03:24:44.504Z,63.70
2023-07-15T03:27:34.312Z,60.40
2023-07-15T03:30:23.477Z,51.00
2023-07-15T03:40:33.598Z,45.20
2023-07-15T03:43:11.148Z,44.50
2023-07-15T03:53:13.267Z,54.60
2023-07-15T03:56:09.898Z,55.00
2023-07-15T04:51:03.453Z,71.20
2023-07-15T04:54:12.756Z,75.10
2023-07-15T04:58:12.586Z,71.40
2023-07-15T05:00:24.870Z,69.70
2023-07-15T05:03:57.575Z,67.70
2023-07-15T05:13:49.260Z,72.00
2023-07-15T05:16:19.223Z,70.40
2023-07-15T05:18:49.846Z,75.30
2023-07-15T05:21:19.006Z,79.30
2023-07-15T05:23:48.822Z,85.10
2023-07-15T05:26:18.879Z,83.70
2023-07-15T05:28:52.284Z,84.90
2023-07-15T05:31:21.410Z,85.90
2023-07-15T05:33:49.940Z,91.50
2023-07-15T05:36:21.376Z,88.60
2023-07-15T05:38:54.845Z,89.90
2023-07-15T05:41:23.604Z,91.10
2023-07-15T05:43:52.394Z,88.20
2023-07-15T05:46:23.842Z,91.20
2023-07-15T05:48:52.716Z,91.30
2023-07-15T05:51:21.508Z,90.10
2023-07-15T05:53:53.000Z,90.20
2023-07-15T05:56:21.249Z,88.80
2023-07-15T05:58:50.513Z,87.00
2023-07-15T06:01:19.524Z,90.20
2023-07-15T06:03:54.387Z,87.80
2023-07-15T06:06:29.105Z,91.20
2023-07-15T06:09:05.171Z,88.20
2023-07-15T06:11:34.865Z,87.10
2023-07-15T06:17:10.174Z,90.60
2023-07-15T06:20:05.315Z,92.20
2023-07-15T06:22:43.856Z,87.20
2023-07-15T06:25:25.041Z,92.00
2023-07-15T06:27:53.530Z,91.20
2023-07-15T06:30:22.312Z,90.60
2023-07-15T06:32:56.289Z,88.80
2023-07-15T06:35:29.779Z,85.50
2023-07-15T06:38:00.116Z,91.50
2023-07-15T06:40:34.678Z,86.60
2023-07-15T06:43:05.951Z,92.50
2023-07-15T06:45:37.427Z,89.20
2023-07-15T06:48:11.744Z,87.70
2023-07-15T06:50:41.039Z,85.80
2023-07-15T06:53:11.006Z,92.70
2023-07-15T06:55:39.978Z,89.10
2023-07-15T06:58:11.470Z,87.40
2023-07-15T07:00:39.828Z,86.10
2023-07-15T07:10:38.504Z,91.80
2023-07-15T07:13:10.836Z,90.10
2023-07-15T07:15:40.194Z,92.80
2023-07-15T07:18:13.769Z,93.40
2023-07-15T07:20:44.629Z,90.80
2023-07-15T07:23:40.603Z,91.80
2023-07-15T07:26:13.787Z,90.80
2023-07-15T07:28:56.848Z,90.70
2023-07-15T07:31:32.163Z,91.60
2023-07-15T07:34:11.857Z,92.60
2023-07-15T07:36:45.626Z,94.00
2023-07-15T07:39:34.034Z,90.20
2023-07-15T07:42:04.136Z,98.10
2023-07-15T07:48:16.567Z,91.40
2023-07-15T07:50:54.897Z,95.40
2023-07-15T07:53:12.693Z,91.60
2023-07-15T07:53:27.454Z,96.60
2023-07-15T07:55:57.024Z,94.40
2023-07-15T07:58:28.031Z,91.90
2023-07-15T08:01:00.519Z,91.40
2023-07-15T08:03:29.920Z,97.00
2023-07-15T08:06:02.328Z,100.80
2023-07-15T08:08:32.020Z,97.00
2023-07-15T08:11:01.472Z,96.70
2023-07-15T08:13:30.895Z,95.00
2023-07-15T08:16:02.055Z,96.70
2023-07-15T08:18:31.409Z,96.60
2023-07-15T08:21:08.995Z,98.20
2023-07-15T08:23:38.568Z,97.70
2023-07-15T08:26:10.535Z,96.00
2023-07-15T08:28:40.839Z,99.50
2023-07-15T08:31:10.166Z,98.80
2023-07-15T08:33:39.804Z,95.30
2023-07-15T08:36:13.943Z,94.50
2023-07-15T08:38:46.415Z,98.40
2023-07-15T08:41:17.860Z,98.10
2023-07-15T08:43:50.977Z,97.00
2023-07-15T08:46:33.020Z,100.60
2023-07-15T08:49:05.207Z,100.40
2023-07-15T08:51:37.526Z,101.30
2023-07-15T08:54:09.442Z,98.60
2023-07-15T08:56:43.554Z,103.30
2023-07-15T08:59:16.575Z,100.00
2023-07-15T09:01:45.921Z,99.40
2023-07-15T09:04:18.555Z,101.30
2023-07-15T09:06:49.563Z,105.10
2023-07-15T09:09:19.173Z,98.20
2023-07-15T09:11:48.792Z,100.60
2023-07-15T09:14:19.840Z,99.70
2023-07-15T09:16:49.702Z,99.00
2023-07-15T09:19:30.564Z,103.40
2023-07-15T09:22:11.244Z,98.30
2023-07-15T09:31:56.431Z,102.20
2023-07-15T09:34:29.326Z,102.10
2023-07-15T09:37:01.423Z,101.40
2023-07-15T09:39:31.201Z,98.60
2023-07-15T09:42:11.369Z,101.10
2023-07-15T09:44:52.933Z,97.50
2023-07-15T09:47:22.777Z,99.80
2023-07-15T09:49:52.260Z,98.80
2023-07-15T09:52:22.253Z,99.20
2023-07-15T09:54:55.412Z,97.30
2023-07-15T09:57:28.843Z,100.30
2023-07-15T09:59:59.369Z,99.30
2023-07-15T10:02:43.497Z,103.80
2023-07-15T10:05:16.751Z,98.30
2023-07-15T10:07:46.306Z,103.90
2023-07-15T10:10:15.852Z,98.50
2023-07-15T10:12:49.076Z,100.10
2023-07-15T10:15:21.417Z,97.90
2023-07-15T10:17:55.008Z,104.60
2023-07-15T10:20:27.738Z,103.30
2023-07-15T10:23:10.229Z,100.10
2023-07-15T10:25:49.065Z,100.10
2023-07-15T10:28:23.683Z,103.30
2023-07-15T10:31:21.867Z,103.90
2023-07-15T10:34:06.362Z,97.20
2023-07-15T10:36:49.345Z,101.70
2023-07-15T10:39:21.557Z,105.30
2023-07-15T10:42:04.774Z,105.20
2023-07-15T10:44:43.944Z,99.30
2023-07-15T10:47:17.920Z,99.80
2023-07-15T10:49:52.697Z,97.70
2023-07-15T10:52:25.392Z,97.90
2023-07-15T10:54:59.258Z,101.60
2023-07-15T10:57:38.024Z,102.00
2023-07-15T11:00:14.537Z,100.70
2023-07-15T11:02:44.139Z,101.70
2023-07-15T11:05:16.431Z,102.00
2023-07-15T11:07:47.053Z,95.80
2023-07-15T11:10:21.330Z,94.60
2023-07-15T11:12:53.404Z,95.90
2023-07-15T11:15:23.464Z,90.50
2023-07-15T11:17:56.044Z,93.60
2023-07-15T11:20:25.590Z,95.70
2023-07-15T11:23:00.462Z,97.20
2023-07-15T11:25:33.584Z,100.10
2023-07-15T11:28:12.280Z,93.30
2023-07-15T11:30:47.728Z,91.20
2023-07-15T11:33:19.498Z,98.20
2023-07-15T11:35:49.217Z,98.50
2023-07-15T11:38:31.992Z,100.80
2023-07-15T11:41:04.804Z,103.80
2023-07-15T11:43:34.607Z,101.30
2023-07-15T11:46:10.649Z,98.00
2023-07-15T11:49:23.554Z,104.40
2023-07-15T11:51:57.472Z,102.10
2023-07-15T11:54:26.314Z,101.70
2023-07-15T11:56:59.363Z,103.10
2023-07-15T12:03:53.842Z,103.30
2023-07-15T12:06:28.953Z,99.80
2023-07-15T12:09:13.709Z,98.90
2023-07-15T12:11:43.628Z,102.00
2023-07-15T12:14:14.230Z,101.90
2023-07-15T12:16:44.605Z,104.40
2023-07-15T12:19:21.035Z,104.00
2023-07-15T12:21:53.612Z,96.70
2023-07-15T12:24:23.458Z,98.70
2023-07-15T12:27:27.820Z,99.20
2023-07-15T12:52:49.777Z,95.70
2023-07-15T13:00:51.195Z,95.90
2023-07-15T13:07:00.511Z,93.30
2023-07-15T13:16:49.302Z,90.20
2023-07-15T13:23:57.069Z,93.50
2023-07-15T13:27:05.868Z,96.70
2023-07-15T13:45:24.920Z,98.60
2023-07-15T13:47:55.930Z,90.40
2023-07-15T13:50:49.213Z,94.10
2023-07-15T13:53:24.297Z,92.40
2023-07-15T13:55:56.740Z,93.30
2023-07-15T13:58:25.998Z,93.40
2023-07-15T14:00:56.095Z,98.90
2023-07-15T14:03:30.578Z,98.10
2023-07-15T14:06:05.714Z,98.20
2023-07-15T14:08:40.149Z,97.30
2023-07-15T14:11:09.636Z,99.90
2023-07-15T14:13:47.735Z,97.70
2023-07-15T14:16:20.232Z,97.10
2023-07-15T14:18:53.698Z,91.70
2023-07-15T14:21:25.959Z,99.70
2023-07-15T14:24:08.040Z,92.10
2023-07-15T14:26:38.270Z,91.00
2023-07-15T14:29:08.009Z,86.10
2023-07-15T14:31:40.815Z,89.20
2023-07-15T14:34:10.705Z,98.90
2023-07-15T14:36:43.595Z,94.90
2023-07-15T14:39:15.820Z,94.40
2023-07-15T14:41:49.511Z,100.70
2023-07-15T14:44:24.648Z,97.20
2023-07-15T14:47:01.064Z,97.00
2023-07-15T14:49:36.607Z,98.20
2023-07-15T14:52:12.325Z,96.20
2023-07-15T14:54:43.638Z,98.30
2023-07-15T14:57:13.847Z,94.80
2023-07-15T14:59:45.589Z,88.20
2023-07-15T15:02:15.823Z,93.80
2023-07-15T15:04:54.853Z,92.60
2023-07-15T15:07:28.800Z,92.50
2023-07-15T15:10:01.609Z,93.60
2023-07-15T15:12:31.053Z,91.30
2023-07-15T15:15:12.042Z,99.30
2023-07-15T15:17:49.857Z,96.80
2023-07-15T15:20:29.863Z,94.70
2023-07-15T15:23:02.224Z,95.00
2023-07-15T15:25:31.797Z,93.50
2023-07-15T15:28:05.689Z,99.20
2023-07-15T15:30:37.590Z,96.40
2023-07-15T15:33:12.969Z,97.80
2023-07-15T15:35:55.083Z,99.10
2023-07-15T15:38:27.437Z,94.20
2023-07-15T15:41:02.021Z,96.30
2023-07-15T15:43:31.558Z,95.00
2023-07-15T15:46:05.111Z,96.30
2023-07-15T15:48:42.578Z,92.50
2023-07-15T15:51:16.543Z,90.10
2023-07-15T15:54:13.365Z,91.90
2023-07-15T15:56:48.795Z,96.00
2023-07-15T15:59:23.905Z,98.00
2023-07-15T16:01:55.827Z,96.80
2023-07-15T16:04:25.229Z,95.00
2023-07-15T16:06:59.927Z,98.80
2023-07-15T16:09:37.393Z,100.20
2023-07-15T16:12:10.487Z,96.90
2023-07-15T16:14:40.431Z,94.50
2023-07-15T16:17:10.499Z,95.80
2023-07-15T16:19:42.077Z,96.00
2023-07-15T16:22:12.524Z,100.30
2023-07-15T16:24:47.880Z,100.90
2023-07-15T16:27:22.306Z,104.30
2023-07-15T16:33:23.477Z,99.60
2023-07-15T16:35:56.169Z,96.70
2023-07-15T16:38:25.352Z,101.90
2023-07-15T16:40:54.786Z,97.50
2023-07-15T16:43:25.094Z,99.00
2023-07-15T16:45:54.220Z,93.80
2023-07-15T16:48:23.554Z,92.80
2023-07-15T16:51:10.011Z,98.90
2023-07-15T16:53:39.562Z,98.90
2023-07-15T16:59:42.930Z,94.10
2023-07-15T17:02:12.761Z,101.30
2023-07-15T17:04:45.587Z,97.90
2023-07-15T17:07:15.156Z,102.50
2023-07-15T17:09:47.250Z,112.10
2023-07-15T17:12:18.546Z,105.90
2023-07-15T17:14:48.228Z,101.10
2023-07-15T17:17:17.779Z,100.10
2023-07-15T17:19:47.049Z,102.50
2023-07-15T17:22:19.058Z,102.30
2023-07-15T17:24:57.234Z,101.60
2023-07-15T17:27:27.049Z,98.30
2023-07-15T17:29:57.080Z,103.60
2023-07-15T17:39:58.885Z,101.50
2023-07-15T17:42:27.585Z,102.50
2023-07-15T17:44:56.420Z,98.30
2023-07-15T17:47:25.334Z,103.10
2023-07-15T17:49:54.460Z,104.80
2023-07-15T17:52:23.148Z,105.00
2023-07-15T17:54:51.845Z,107.80
2023-07-15T17:57:20.281Z,100.50
2023-07-15T17:59:49.239Z,102.30
2023-07-15T18:02:18.183Z,108.10
2023-07-15T18:04:51.134Z,103.10
2023-07-15T18:07:21.086Z,104.40
2023-07-15T18:09:49.876Z,103.40
2023-07-15T18:12:22.850Z,105.70
2023-07-15T18:14:51.848Z,105.80
2023-07-15T18:17:20.568Z,107.90
2023-07-15T18:19:49.974Z,108.70
2023-07-15T18:22:20.467Z,121.40
2023-07-15T18:24:52.747Z,123.30
2023-07-15T18:27:22.826Z,125.90
2023-07-15T18:29:51.866Z,115.40
2023-07-15T18:32:21.405Z,126.90
2023-07-15T18:34:50.374Z,136.10
2023-07-15T18:37:19.036Z,154.60
2023-07-15T18:39:47.396Z,144.90
2023-07-15T18:42:15.910Z,146.10
2023-07-15T18:44:44.500Z,146.90
2023-07-15T18:47:17.187Z,147.10
2023-07-15T18:49:46.420Z,141.20
2023-07-15T18:52:34.459Z,155.60
2023-07-15T18:55:05.582Z,156.50
2023-07-15T18:57:35.370Z,156.00
2023-07-15T19:00:05.887Z,162.50
2023-07-15T19:02:34.585Z,154.60
2023-07-15T19:05:03.459Z,156.70
2023-07-15T19:07:32.367Z,154.70
2023-07-15T19:10:01.341Z,154.70
2023-07-15T19:12:30.184Z,151.20
2023-07-15T19:15:01.375Z,149.80
2023-07-15T19:17:30.762Z,152.90
2023-07-15T19:20:00.231Z,150.30
2023-07-15T19:22:29.504Z,151.00
2023-07-15T19:24:58.417Z,149.70
2023-07-15T19:27:34.317Z,166.30
2023-07-15T19:30:03.302Z,158.10
2023-07-15T19:32:31.953Z,159.50
2023-07-15T19:35:04.151Z,160.20
2023-07-15T19:37:33.092Z,154.30
2023-07-15T19:40:07.356Z,151.30
2023-07-15T19:42:36.008Z,142.20
2023-07-15T19:45:08.985Z,158.30
2023-07-15T19:47:37.553Z,159.80
2023-07-15T19:50:07.315Z,156.60
2023-07-15T19:52:35.695Z,154.90
2023-07-15T19:55:04.279Z,153.10
2023-07-15T19:57:32.674Z,149.00
2023-07-15T20:00:09.648Z,147.50
2023-07-15T20:02:38.142Z,146.20
2023-07-15T20:05:06.996Z,139.70
2023-07-15T20:07:40.126Z,138.20
2023-07-15T20:10:41.413Z,133.50
2023-07-15T20:13:10.276Z,120.00
2023-07-15T20:15:38.880Z,127.50
2023-07-15T20:18:09.386Z,126.50
2023-07-15T20:23:19.812Z,116.80
2023-07-15T20:25:48.263Z,121.80
2023-07-15T20:28:16.585Z,125.10
2023-07-15T20:30:46.531Z,123.80
2023-07-15T20:33:15.093Z,120.30
2023-07-15T20:35:49.534Z,103.40
2023-07-15T20:38:20.938Z,112.50
2023-07-15T20:40:56.104Z,111.20
2023-07-15T20:43:29.501Z,108.40
2023-07-15T20:46:01.463Z,113.70
2023-07-15T20:48:29.823Z,100.90
2023-07-15T20:50:58.277Z,108.60
2023-07-15T20:53:27.000Z,112.40
2023-07-15T20:55:57.469Z,110.50
2023-07-15T20:58:29.582Z,101.60
2023-07-15T21:00:58.284Z,98.50
2023-07-15T21:03:27.025Z,99.90
2023-07-15T21:06:03.802Z,103.60
2023-07-15T21:08:32.923Z,110.60
2023-07-15T21:11:02.689Z,100.80
2023-07-15T21:13:31.246Z,103.70
2023-07-15T21:16:02.507Z,98.10
2023-07-15T21:18:36.274Z,96.60
2023-07-15T21:21:05.686Z,93.70
2023-07-15T21:23:34.184Z,92.30
2023-07-15T21:26:06.938Z,96.90
2023-07-15T21:28:41.862Z,93.20
2023-07-15T21:31:10.827Z,95.90
2023-07-15T21:33:39.934Z,90.20
2023-07-15T21:36:08.602Z,92.50
2023-07-15T21:38:37.084Z,89.10
2023-07-15T21:41:05.804Z,88.10
2023-07-15T21:43:34.509Z,81.00
2023-07-15T21:46:03.117Z,78.90
2023-07-15T21:48:31.545Z,76.70
2023-07-15T21:51:03.007Z,64.10
2023-07-15T21:53:32.321Z,60.50
2023-07-15T21:56:00.703Z,61.70
2023-07-15T21:58:29.102Z,56.40
2023-07-15T22:00:59.707Z,57.50
2023-07-15T22:03:28.389Z,60.00
2023-07-15T22:05:58.023Z,56.80
2023-07-15T22:08:26.385Z,55.80
2023-07-15T22:10:54.940Z,56.90
2023-07-15T22:13:23.390Z,55.70
2023-07-15T22:15:52.427Z,56.20
2023-07-15T22:18:34.239Z,54.50
2023-07-15T22:21:07.022Z,55.00
2023-07-15T22:23:35.326Z,53.50
2023-07-15T22:26:06.865Z,55.60
2023-07-15T22:28:35.551Z,53.30
2023-07-15T22:31:03.993Z,55.60
2023-07-15T22:33:37.545Z,53.00
2023-07-15T22:36:06.367Z,52.10
2023-07-15T22:38:34.561Z,48.30
2023-07-15T22:41:02.967Z,53.00
2023-07-15T22:43:31.161Z,49.20
2023-07-15T22:45:59.503Z,45.40
2023-07-15T22:48:29.148Z,45.30
2023-07-15T22:50:57.524Z,48.40
2023-07-15T22:53:28.662Z,47.00
2023-07-15T22:55:57.300Z,40.40
2023-07-15T22:58:26.105Z,40.80
2023-07-15T23:00:57.681Z,40.10
2023-07-15T23:03:27.421Z,46.10
2023-07-15T23:05:56.575Z,43.30
2023-07-15T23:08:26.186Z,42.80
2023-07-15T23:10:54.729Z,44.50
2023-07-15T23:13:23.296Z,46.20
2023-07-15T23:15:59.577Z,44.30
2023-07-15T23:18:31.576Z,41.40
2023-07-15T23:20:59.974Z,37.00
2023-07-15T23:23:28.466Z,38.70
2023-07-15T23:25:57.221Z,39.30
2023-07-15T23:28:25.488Z,37.40
2023-07-15T23:30:53.972Z,33.10
2023-07-15T23:33:22.437Z,37.60
2023-07-15T23:35:53.175Z,32.80
2023-07-15T23:38:21.654Z,32.40
2023-07-15T23:40:50.156Z,34.00
2023-07-15T23:43:18.446Z,32.90
2023-07-15T23:45:50.063Z,32.30
2023-07-15T23:48:19.039Z,33.40
2023-07-15T23:50:50.666Z,34.40
2023-07-15T23:53:18.943Z,31.50
2023-07-15T23:55:47.110Z,31.70
2023-07-15T23:58:15.545Z,31.40
